Historyczne dane pomiarowe

Dodano dane terminowe – wersja testowa.

Dane z okresu 1951-2019

Wersja bazy: 1.34 [2019-03-16, lista zmian], aktualizacja planowana na 2019-04-15

Dane meteo z obszaru Polski uzyskane na podstawie danych udostępnionych przez Instytut Meteorologii i Gospodarki Wodnej – Państwowy Instytut Badawczy.

 

Wybierz Datę:    

       

TemperaturaWilgotnośćWiatrCiśnienieOpadyŚniegCzas trwania zjawisk
 Stacja t tx tn tng RH VA  wxwx mslp ppp RRR   cm mm wxwxwxwxwxwxwx
2019-06-19 18.3 25.8 14.6--- 6.7 1.0---- 2.0------------
2019-06-18 15.8 21.7 9.1--- 5.7 1.0---- 0.0------------
2019-06-17 16.6 19.2 14.1--- 5.7 1.3---- 0.0------------
2019-06-16 20.7 28.8 15.1--- 4.7 1.7---- 8.2------------
2019-06-15 22.6 30.9 16.1--- 5.0 1.3---- 0.0------------
2019-06-14 22.2 28.8 14.6--- 4.3 2.3---- 0.0------------
2019-06-13 21.9 29.8 13.6--- 1.0 2.0---- 0.0------------
2019-06-12 22.5 28.8 13.6--- 1.0 2.7---- 0.0------------
2019-06-11 20.9 27.8 12.6--- 0.3 2.7---- 0.0------------
2019-06-10 20.9 28.3 13.1--- 1.0 2.7---- 0.0------------
2019-06-09 18.8 24.3 13.6--- 1.7 1.7---- 0.0------------
2019-06-08 18.2 26.8 12.6--- 6.0 1.0---- 0.0------------
2019-06-07 18.0 24.3 11.6--- 4.0 1.3---- 0.0------------
2019-06-06 18.3 21.7 14.1--- 3.0 3.3---- 0.0------------
2019-06-05 17.1 23.3 10.6--- 2.7 2.3---- 0.0------------
2019-06-04 17.6 23.8 11.1--- 3.0 0.3---- 0.0------------
2019-06-03 16.8 23.8 9.1--- 1.3 2.0---- 0.0------------
2019-06-02 16.7 22.7 10.6--- 2.0 1.3---- 0.0------------
2019-06-01 14.0 21.2 6.7--- 6.0 1.0---- 0.0------------
2019-05-31 11.5 17.2 6.7--- 5.3 1.7---- 0.0------------
2019-05-30 8.2 10.3 6.7--- 8.0 1.3---- 26.5------------
2019-05-29 11.4 15.6 8.6--- 8.0 1.3---- 6.0------------
2019-05-28 16.0 19.2 12.6--- 7.3 3.3---- 0.5------------
2019-05-27 14.2 21.2 7.6--- 5.7 2.0---- 0.0------------
2019-05-26 14.6 21.2 7.2--- 3.7 0.3---- 0.0------------
2019-05-25 12.7 20.2 7.6--- 4.3 2.7---- 0.0------------
2019-05-24 10.0 11.3 8.6--- 8.0 2.0---- 0.8------------
2019-05-23 10.0 11.8 9.1--- 8.0 3.7---- 17.6------------
2019-05-22 12.1 15.8 10.1--- 8.0 1.0---- 33.9------------
2019-05-21 11.2 16.0 7.2--- 8.0 0.3---- 16.1------------
2019-05-20 15.7 18.7 12.1--- 6.3 4.3---- 0.0------------
2019-05-19 13.8 21.7 5.7--- 3.3 1.7---- 0.0------------
2019-05-18 13.0 21.7 5.7--- 3.7 0.7---- 0.0------------
2019-05-17 13.3 18.7 8.1--- 4.3 2.7---- 0.0------------
2019-05-16 11.4 16.7 6.7--- 5.7 1.3---- 0.0------------
2019-05-15 5.3 7.4 1.8--- 8.0 2.0---- 7.4------------
2019-05-14 2.4 6.0 0.3--- 8.0 2.7---- 17.1------------
2019-05-13 6.7 8.9 5.7--- 8.0 2.0---- 4.6------------
2019-05-12 10.9 18.2 7.2--- 7.3 2.3---- 4.6------------
2019-05-11 11.6 18.2 5.2--- 6.0 1.7---- 0.0------------
2019-05-10 9.6 15.3 5.7--- 6.0 1.3---- 3.2------------
2019-05-09 7.0 9.5 3.7--- 8.0 3.7---- 4.4------------
2019-05-08 5.6 12.8 -1.2--- 5.0 2.0---- 0.3------------
2019-05-07 5.2 8.3 1.8--- 7.3 2.3---- 0.0------------
2019-05-06 2.8 4.9 1.3--- 8.0 2.7---- 0.6------------
2019-05-05 4.5 9.3 1.8--- 8.0 2.7---- 12.1------------
2019-05-04 7.2 12.3 2.2--- 7.0 1.7---- 0.4------------
2019-05-03 8.0 13.8 5.2--- 7.7 1.0---- 8.6------------
2019-05-02 11.5 17.7 5.2--- 4.3 3.3---- 0.0------------
2019-05-01 9.7 14.3 5.2--- 5.0 3.3---- 2.5------------
2019-04-30 9.2 10.8 8.1--- 8.0 1.0---- 17.7------------
2019-04-29 8.1 10.8 5.7--- 8.0 1.7---- 1.8------------
2019-04-28 7.9 10.3 6.8--- 8.0 2.0---- 13.3------------
2019-04-27 12.2 19.9 8.6--- 8.0 1.3---- 22.6------------
2019-04-26 15.0 25.3 5.2--- 5.7 1.3---- 0.9------------
2019-04-25 16.7 23.3 11.6--- 1.0 3.0---- 0.0------------
2019-04-24 10.7 13.3 7.6--- 5.7 5.7---- 0.0------------
2019-04-23 9.1 13.0 6.2--- 6.7 3.7---- 0.0------------
2019-04-22 6.9 13.3 1.8--- 6.0 2.3---- 0.0------------
2019-04-21 7.3 16.2 -0.7--- 3.3 1.7---- 0.0------------
198.0 ms

 

Źródłem pochodzenia danych jest Instytut Meteorologii i Gospodarki Wodnej – Państwowy Instytut Badawczy. Dane Instytutu Meteorologii i Gospodarki Wodnej – Państwowego Instytutu Badawczego zostały przetworzone.

Dane źródłowe można odnaleźć na stronie https://dane.imgw.pl